Airways and Terminal Forecast

Significant Meteorological Information
WSPH31 RPLL 220909
RPHI SIGMET C05 VALID 220909/221309 RPLL-
RPHI MANILA FIR EMBD TS OBS WI N0728 E12545 - N0550 E12434 - N0551 E12304 - N0849 E12417 - N0926 E12519 - N0728 E12545 TOP FL500 MOV WSW 15KT NC=


WSPH31 RPLL 220852
RPHI SIGMET B04 VALID 220855/221255 RPLL-
RPHI MANILA FIR EMBD TS OBS WI N0542 E13056 - N0429 E12959 - 0400 E12759 - N0400 E12625 - N0610 E12519 - N0644 E12801 - N0542 E13056 TOP FL500 MOV WSW 15KT NC=
Terminal Aerodrome Forecast
TAF RPLL

221100Z 2212/2318 10007KT 9999 FEW025 SCT300 TX33/2306Z TN26/2222Z TEMPO 2212/2218 12005KT FEW023CB SCT025 SCT100 TEMPO 2300/2306 11009KT FEW023 SCT100=

TAF RPVM

221100Z 2212/2318 04006KT 9999 FEW020 BKN300 TEMPO 2212/2218 01008KT 9000 -SHRA FEW018CB FEW020 BKN090 TEMPO 2218/2224 VRB04KT 9000 -SHRA FEW018CB BKN100=

TAF RPLC

221100Z 2212/2318 05006KT 9999 FEW020 BKN300 TX33/2306Z TN24/2221Z TEMPO 2212/2218 24008KT FEW020 SCT100 BKN300=

TAF RPLB

221100Z 2212/2312 05004KT 9999 FEW020 SCT300 TX33/2306Z TN24/2222Z TEMPO 2212/2218 07007KT FEW018CB FEW020 SCT080 BKN300=

TAF RPLI

221100Z 2212/2312 04006KT 9999 FEW018 TEMPO 2212/2218 12004KT FEW017CB SCT290=

TAF RPVP

221100Z 2212/2312 27008KT 9999 FEW019 SCT080 BKN240 TEMPO 2212/2218 08004KT 8000 -TSRA FEW017CB SCT019 BKN080 OVC240=

TAF RPVD

221100Z 2212/2312 32008KT 9999 FEW015 SCT220 TEMPO 2212/2218 04004KT 9000 -SHRA FEW014CB SCT015 BKN080=

TAF RPMR

221100Z 2212/2312 32010KT 9999 FEW018 SCT080 BKN250 TEMPO 2212/2218 18004KT 9000 -SHRA FEW018CB FEW020 BKN080=

TAF RPMD

221100Z 2212/2312 03006KT 9999 FEW016 SCT090 BKN290 TEMPO 2212/2218 35009KT 9000 TS -SHRA FEW015CB BKN090=

TAF RPMZ

221100Z 2212/2312 27006KT 9999 FEW017 BKN300 TEMPO 2212/2218 25004KT 9000 -SHRA FEW016CB BKN090=

RPLL FORECAST TAKE-OFF CONDITION
TIME

(UTC)

WIND

(dddffKT)

TEMP

(°C)

QNH

(hPa)

TIME

(UTC)

WIND

(dddffKT)

TEMP

(°C)

QNH

(hPa)

1200

10005KT

29.0

1011.5

1600

10004KT

28.0

1011.0

1300

11004KT

29.0

1012.0

1700

09005KT

28.0

1011.0

1400

12005KT

28.5

1012.0

1800

07003KT

27.5

1010.0

1500

11003KT

28.0

1012.0

1900

10004KT

27.0

1010.0

ISSUED AT NAIA AMSS-WD/PAGASA-DOST FOR 1100UTC 22 OCTOBER 2018


PREPARED BY:   CHH                                                        CHECKED BY:  MPT